Time;durP1;ratioP1;P1;durP2;ratioP2;P2;SDS_P1;SDS_P2;PMS_P1;PMS_P2;Temp;Humidity;BMP_temperature;BMP_pressure;BME280_temperature;BME280_humidity;BME280_pressure;Samples;Min_cycle;Max_cycle;Signal;HPM_P1;HPM_P2
2023/11/15 00:00:09;;;;;;;1.38;0.40;;;;;;;;;;5923951;29;20057;-84
2023/11/15 00:03:11;;;;;;;0.35;0.30;;;;;;;;;;5926861;29;20116;-84
2023/11/15 00:06:13;;;;;;;0.43;0.40;;;;;;;;;;5915801;29;20061;-83
2023/11/15 00:09:15;;;;;;;0.43;0.30;;;;;;;;;;5926573;29;20059;-84
2023/11/15 00:12:17;;;;;;;0.30;0.30;;;;;;;;;;5929849;29;20077;-84
2023/11/15 00:15:18;;;;;;;0.40;0.40;;;;;;;;;;5912641;29;20134;-84
2023/11/15 00:18:20;;;;;;;0.95;0.40;;;;;;;;;;5925391;29;20134;-84
2023/11/15 00:21:22;;;;;;;0.28;0.28;;;;;;;;;;5940523;29;20043;-84
2023/11/15 00:24:24;;;;;;;0.73;0.73;;;;;;;;;;5929561;29;20048;-84
2023/11/15 00:27:26;;;;;;;1.15;0.47;;;;;;;;;;5928840;29;20415;-85
2023/11/15 00:30:28;;;;;;;2.92;0.47;;;;;;;;;;5927273;29;20054;-84
2023/11/15 00:33:29;;;;;;;0.52;0.50;;;;;;;;;;5928890;29;20055;-84
2023/11/15 00:36:33;;;;;;;0.70;0.43;;;;;;;;;;5928627;29;20483;-84
2023/11/15 00:39:34;;;;;;;0.40;0.40;;;;;;;;;;5944414;29;20862;-84
2023/11/15 00:42:36;;;;;;;1.15;0.32;;;;;;;;;;5941249;29;20070;-84
2023/11/15 00:45:38;;;;;;;0.32;0.32;;;;;;;;;;5944425;29;20055;-84
2023/11/15 00:48:40;;;;;;;0.65;0.40;;;;;;;;;;5925863;29;20074;-83
2023/11/15 00:51:41;;;;;;;1.20;0.30;;;;;;;;;;5915078;29;20062;-83
2023/11/15 00:54:43;;;;;;;0.43;0.32;;;;;;;;;;5928992;29;20090;-83
2023/11/15 00:57:45;;;;;;;2.65;0.50;;;;;;;;;;5946271;29;20062;-84
2023/11/15 01:00:48;;;;;;;0.82;0.40;;;;;;;;;;5914504;29;20055;-83
2023/11/15 01:03:55;;;;;;;1.00;0.32;;;;;;;;;;5937658;29;20574;-84
2023/11/15 01:06:58;;;;;;;1.33;0.45;;;;;;;;;;5919733;29;20058;-83
2023/11/15 01:10:00;;;;;;;3.10;0.60;;;;;;;;;;5911284;30;20051;-83
2023/11/15 01:13:02;;;;;;;1.60;0.50;;;;;;;;;;5903388;30;20073;-83
2023/11/15 01:16:05;;;;;;;3.30;0.82;;;;;;;;;;5898465;30;20060;-83
2023/11/15 01:19:07;;;;;;;2.63;0.63;;;;;;;;;;5926412;29;20093;-83
2023/11/15 01:22:09;;;;;;;1.00;0.40;;;;;;;;;;5916827;30;20055;-83
2023/11/15 01:25:12;;;;;;;2.42;0.47;;;;;;;;;;5896654;30;20508;-84
2023/11/15 01:28:14;;;;;;;0.77;0.50;;;;;;;;;;5913465;29;20059;-82
2023/11/15 01:31:16;;;;;;;1.15;0.50;;;;;;;;;;5912440;30;20482;-84
2023/11/15 01:34:18;;;;;;;2.20;0.50;;;;;;;;;;5913139;30;20054;-82
2023/11/15 01:37:20;;;;;;;;;;;;;;;;;;5912553;30;20054;-83
2023/11/15 01:40:23;;;;;;;1.58;0.50;;;;;;;;;;5914916;30;21032;-83
2023/11/15 01:43:25;;;;;;;1.10;0.47;;;;;;;;;;5895561;30;20051;-84
2023/11/15 01:46:27;;;;;;;0.73;0.50;;;;;;;;;;5917753;30;20066;-82
2023/11/15 01:49:29;;;;;;;2.78;0.80;;;;;;;;;;5913203;30;20048;-83
2023/11/15 01:52:31;;;;;;;1.98;0.90;;;;;;;;;;5914509;30;20059;-83
2023/11/15 01:55:34;;;;;;;4.47;1.40;;;;;;;;;;5908865;29;20047;-83
2023/11/15 01:58:37;;;;;;;5.05;1.50;;;;;;;;;;5909041;30;20504;-82
2023/11/15 02:01:40;;;;;;;4.45;1.80;;;;;;;;;;5897093;30;20044;-83
2023/11/15 02:04:42;;;;;;;4.18;2.10;;;;;;;;;;5895385;29;20105;-83
2023/11/15 02:07:45;;;;;;;7.60;2.05;;;;;;;;;;5926452;29;20051;-84
2023/11/15 02:10:47;;;;;;;4.90;2.33;;;;;;;;;;5906642;29;20067;-83
2023/11/15 02:13:48;;;;;;;5.38;2.53;;;;;;;;;;5914169;30;20063;-84
2023/11/15 02:16:51;;;;;;;7.70;2.17;;;;;;;;;;5918279;30;20062;-85
2023/11/15 02:19:53;;;;;;;7.10;2.25;;;;;;;;;;5935874;29;20430;-85
2023/11/15 02:22:56;;;;;;;5.93;2.60;;;;;;;;;;5915215;29;20055;-83
2023/11/15 02:25:58;;;;;;;7.13;3.28;;;;;;;;;;5920420;29;20051;-83
2023/11/15 02:29:00;;;;;;;7.28;2.67;;;;;;;;;;5917825;29;20068;-83
2023/11/15 02:32:02;;;;;;;6.82;2.83;;;;;;;;;;5920483;29;20062;-83
2023/11/15 02:35:04;;;;;;;8.20;2.17;;;;;;;;;;5909075;29;20058;-85
2023/11/15 02:38:06;;;;;;;6.25;3.03;;;;;;;;;;5921151;29;20070;-84
2023/11/15 02:41:08;;;;;;;7.28;2.60;;;;;;;;;;5927419;29;20051;-85
2023/11/15 02:44:10;;;;;;;5.33;2.00;;;;;;;;;;5926195;29;20047;-84
2023/11/15 02:47:12;;;;;;;5.38;2.38;;;;;;;;;;5927633;29;20453;-84
2023/11/15 02:50:13;;;;;;;5.35;2.00;;;;;;;;;;5928570;29;20071;-83
2023/11/15 02:53:15;;;;;;;3.45;1.70;;;;;;;;;;5929743;29;20054;-83
2023/11/15 02:56:18;;;;;;;5.85;1.92;;;;;;;;;;5923761;29;20537;-84
2023/11/15 02:59:20;;;;;;;4.90;1.50;;;;;;;;;;5925703;29;20051;-85
2023/11/15 03:02:21;;;;;;;2.50;1.60;;;;;;;;;;5925414;29;20157;-84
2023/11/15 03:05:23;;;;;;;2.90;1.20;;;;;;;;;;5925831;29;20148;-83
2023/11/15 03:08:25;;;;;;;3.97;1.42;;;;;;;;;;5915623;29;20143;-83
2023/11/15 03:11:26;;;;;;;3.63;1.20;;;;;;;;;;5930630;29;20055;-83
2023/11/15 03:14:28;;;;;;;2.95;1.10;;;;;;;;;;5924675;29;20077;-83
2023/11/15 03:17:32;;;;;;;1.67;1.15;;;;;;;;;;5928185;29;20062;-84
2023/11/15 03:20:34;;;;;;;1.80;0.98;;;;;;;;;;5923355;29;20070;-83
2023/11/15 03:23:38;;;;;;;4.53;1.10;;;;;;;;;;5909429;29;20134;-84
2023/11/15 03:26:40;;;;;;;3.85;1.30;;;;;;;;;;5919765;29;20569;-84
2023/11/15 03:29:41;;;;;;;3.53;1.20;;;;;;;;;;5906895;29;20047;-83
2023/11/15 03:32:44;;;;;;;1.52;1.30;;;;;;;;;;5935303;29;20051;-83
2023/11/15 03:35:46;;;;;;;3.92;1.60;;;;;;;;;;5919711;29;20066;-83
2023/11/15 03:38:48;;;;;;;3.70;2.03;;;;;;;;;;5914774;29;20063;-83
2023/11/15 03:41:49;;;;;;;9.43;2.20;;;;;;;;;;5914079;29;20055;-83
2023/11/15 03:44:51;;;;;;;7.90;2.63;;;;;;;;;;5927907;29;20048;-82
2023/11/15 03:47:53;;;;;;;5.32;2.13;;;;;;;;;;5922298;29;20412;-82
2023/11/15 03:50:55;;;;;;;5.50;1.90;;;;;;;;;;5914057;29;20051;-82
2023/11/15 03:53:57;;;;;;;8.48;1.90;;;;;;;;;;5917775;29;20126;-81
2023/11/15 03:56:59;;;;;;;7.00;2.25;;;;;;;;;;5915375;29;20060;-83
2023/11/15 04:00:01;;;;;;;3.85;1.80;;;;;;;;;;5904379;29;20051;-81
2023/11/15 04:03:13;;;;;;;4.57;1.70;;;;;;;;;;5917662;29;20060;-83
2023/11/15 04:06:16;;;;;;;3.05;1.80;;;;;;;;;;5919442;29;20449;-82
2023/11/15 04:09:18;;;;;;;4.78;1.85;;;;;;;;;;5906604;29;20055;-83
2023/11/15 04:12:20;;;;;;;4.03;1.58;;;;;;;;;;5915741;29;20047;-83
2023/11/15 04:15:22;;;;;;;3.58;2.00;;;;;;;;;;5933701;29;20062;-82
2023/11/15 04:18:23;;;;;;;5.65;1.60;;;;;;;;;;5936348;29;20512;-83
2023/11/15 04:21:26;;;;;;;5.38;1.70;;;;;;;;;;5909255;29;20051;-83
2023/11/15 04:24:27;;;;;;;4.40;1.88;;;;;;;;;;5923673;29;20059;-82
2023/11/15 04:27:30;;;;;;;5.15;1.88;;;;;;;;;;5921407;29;20058;-83
2023/11/15 04:30:32;;;;;;;4.60;1.65;;;;;;;;;;5915794;29;20066;-82
2023/11/15 04:33:34;;;;;;;3.92;1.40;;;;;;;;;;5900703;29;20086;-83
2023/11/15 04:36:36;;;;;;;3.05;1.67;;;;;;;;;;5915735;29;20048;-82
2023/11/15 04:39:37;;;;;;;3.67;1.90;;;;;;;;;;5917439;29;20197;-81
2023/11/15 04:42:39;;;;;;;3.13;1.65;;;;;;;;;;5916058;29;20051;-83
2023/11/15 04:45:41;;;;;;;3.63;1.50;;;;;;;;;;5918288;29;20495;-81
2023/11/15 04:48:43;;;;;;;2.40;1.65;;;;;;;;;;5921613;29;20048;-83
2023/11/15 04:51:45;;;;;;;4.93;1.80;;;;;;;;;;5918617;29;20178;-82
2023/11/15 04:54:47;;;;;;;6.32;1.73;;;;;;;;;;5931631;29;20057;-83
2023/11/15 04:57:48;;;;;;;3.97;1.70;;;;;;;;;;5919290;29;20063;-82
2023/11/15 05:00:50;;;;;;;8.05;1.77;;;;;;;;;;5917652;29;21841;-82
2023/11/15 05:03:52;;;;;;;5.18;2.25;;;;;;;;;;5919861;29;20064;-83
2023/11/15 05:06:54;;;;;;;3.90;1.90;;;;;;;;;;5919940;29;20146;-82
2023/11/15 05:09:56;;;;;;;6.13;1.92;;;;;;;;;;5937383;29;20058;-82
2023/11/15 05:12:59;;;;;;;4.45;1.80;;;;;;;;;;5920859;29;20047;-83
2023/11/15 05:16:00;;;;;;;6.93;1.95;;;;;;;;;;5907371;29;20108;-83
2023/11/15 05:19:02;;;;;;;2.75;1.70;;;;;;;;;;5936895;29;20182;-82
2023/11/15 05:22:04;;;;;;;8.77;2.30;;;;;;;;;;5917945;29;20059;-83
2023/11/15 05:25:06;;;;;;;5.22;2.00;;;;;;;;;;5919980;29;20051;-81
2023/11/15 05:28:08;;;;;;;9.80;1.80;;;;;;;;;;5923000;29;20051;-82
2023/11/15 05:31:09;;;;;;;8.23;1.70;;;;;;;;;;5904294;29;20063;-83
2023/11/15 05:34:11;;;;;;;8.65;2.25;;;;;;;;;;5914747;30;20051;-83
2023/11/15 05:37:13;;;;;;;2.88;1.45;;;;;;;;;;5920758;29;20128;-83
2023/11/15 05:40:18;;;;;;;3.97;2.05;;;;;;;;;;5907820;30;20143;-81
2023/11/15 05:43:20;;;;;;;9.98;1.92;;;;;;;;;;5921251;30;20067;-84
2023/11/15 05:46:21;;;;;;;9.02;2.00;;;;;;;;;;5934465;29;20055;-83
2023/11/15 05:49:23;;;;;;;8.13;2.03;;;;;;;;;;5930346;29;20531;-83
2023/11/15 05:52:25;;;;;;;5.53;1.52;;;;;;;;;;5933858;29;20055;-83
2023/11/15 05:55:28;;;;;;;5.25;1.90;;;;;;;;;;5918124;29;20538;-82
2023/11/15 05:58:30;;;;;;;6.97;1.70;;;;;;;;;;5905383;30;20092;-82
2023/11/15 06:01:36;;;;;;;4.75;1.42;;;;;;;;;;5899007;29;20058;-83
2023/11/15 06:04:38;;;;;;;4.82;1.50;;;;;;;;;;5928169;29;20051;-83
2023/11/15 06:07:40;;;;;;;9.50;1.98;;;;;;;;;;5926780;29;20456;-81
2023/11/15 06:10:42;;;;;;;9.05;1.90;;;;;;;;;;5933818;29;20688;-83
2023/11/15 06:13:43;;;;;;;3.70;1.70;;;;;;;;;;5921374;29;20058;-83
2023/11/15 06:16:45;;;;;;;4.03;1.80;;;;;;;;;;5930540;29;20066;-81
2023/11/15 06:19:47;;;;;;;6.72;1.90;;;;;;;;;;5923286;29;20683;-82
2023/11/15 06:23:01;;;;;;;5.90;1.85;;;;;;;;;;5897953;30;20059;-83
2023/11/15 06:26:03;;;;;;;4.18;2.60;;;;;;;;;;5907702;30;20055;-83
2023/11/15 06:29:05;;;;;;;5.97;1.75;;;;;;;;;;5907641;30;20100;-82
2023/11/15 06:32:07;;;;;;;10.15;1.80;;;;;;;;;;5920586;29;20066;-81
2023/11/15 06:35:09;;;;;;;6.30;2.00;;;;;;;;;;5893873;30;20592;-83
2023/11/15 06:38:10;;;;;;;7.30;1.90;;;;;;;;;;5909546;30;20067;-83
2023/11/15 06:41:13;;;;;;;6.13;2.17;;;;;;;;;;5892077;30;20139;-82
2023/11/15 06:44:15;;;;;;;5.85;1.80;;;;;;;;;;5919249;29;20043;-82
2023/11/15 06:47:18;;;;;;;6.82;2.10;;;;;;;;;;5899111;30;20071;-83
2023/11/15 06:50:20;;;;;;;9.32;2.25;;;;;;;;;;5916799;29;20055;-82
2023/11/15 06:53:22;;;;;;;6.43;2.40;;;;;;;;;;5933250;30;20454;-81
2023/11/15 06:56:23;;;;;;;9.07;1.88;;;;;;;;;;5935427;29;20120;-81
2023/11/15 06:59:29;;;;;;;9.60;2.85;;;;;;;;;;5919221;29;20055;-81
2023/11/15 07:02:30;;;;;;;6.10;2.10;;;;;;;;;;5913331;30;20078;-83
2023/11/15 07:05:33;;;;;;;5.65;1.95;;;;;;;;;;5932509;29;20067;-80
2023/11/15 07:08:34;;;;;;;9.60;2.30;;;;;;;;;;5906795;29;20063;-82
2023/11/15 07:11:36;;;;;;;3.38;1.95;;;;;;;;;;5924406;30;20167;-83
2023/11/15 07:14:38;;;;;;;4.30;1.98;;;;;;;;;;5904606;29;20055;-82
2023/11/15 07:17:39;;;;;;;5.72;2.35;;;;;;;;;;5916593;30;20055;-83
2023/11/15 07:20:41;;;;;;;10.35;2.90;;;;;;;;;;5917447;30;20047;-83
2023/11/15 07:23:43;;;;;;;7.65;2.33;;;;;;;;;;5934439;29;20039;-82
2023/11/15 07:26:46;;;;;;;6.43;2.20;;;;;;;;;;5917303;30;20055;-81
2023/11/15 07:29:47;;;;;;;8.75;2.05;;;;;;;;;;5900087;30;20460;-81
2023/11/15 07:32:49;;;;;;;5.20;2.00;;;;;;;;;;5929687;29;20056;-82
2023/11/15 07:35:51;;;;;;;7.15;2.13;;;;;;;;;;5918697;30;20057;-80
2023/11/15 07:38:53;;;;;;;6.13;2.65;;;;;;;;;;5918760;29;20104;-83
2023/11/15 07:41:54;;;;;;;3.92;1.90;;;;;;;;;;5934528;29;20512;-82
2023/11/15 07:44:57;;;;;;;9.45;2.00;;;;;;;;;;5918899;30;20051;-83
2023/11/15 07:48:01;;;;;;;5.82;1.75;;;;;;;;;;5917987;30;20052;-83
2023/11/15 07:51:04;;;;;;;4.70;1.85;;;;;;;;;;5918068;29;20416;-81
2023/11/15 07:54:06;;;;;;;;;;;;;;;;;;5929492;29;20463;-82
2023/11/15 07:57:08;;;;;;;4.70;1.60;;;;;;;;;;5933810;29;19935;-82
2023/11/15 08:00:11;;;;;;;4.32;1.45;;;;;;;;;;5932615;29;20051;-83
2023/11/15 08:03:14;;;;;;;6.47;2.03;;;;;;;;;;5933763;29;20089;-84
2023/11/15 08:06:16;;;;;;;4.25;1.60;;;;;;;;;;5917631;30;20089;-83
2023/11/15 08:09:24;;;;;;;3.50;1.85;;;;;;;;;;5915782;29;20427;-81
2023/11/15 08:12:27;;;;;;;5.85;1.70;;;;;;;;;;5923505;29;20059;-83
2023/11/15 08:15:29;;;;;;;4.10;1.60;;;;;;;;;;5934138;29;20044;-80
2023/11/15 08:18:31;;;;;;;4.65;1.65;;;;;;;;;;5902208;30;20055;-83
2023/11/15 08:21:33;;;;;;;3.15;1.38;;;;;;;;;;5907286;29;20051;-84
2023/11/15 08:24:34;;;;;;;5.22;1.83;;;;;;;;;;5897663;30;20059;-83
2023/11/15 08:27:38;;;;;;;5.72;1.80;;;;;;;;;;5895315;30;20056;-83
2023/11/15 08:30:40;;;;;;;3.88;1.70;;;;;;;;;;5904432;29;21160;-82
2023/11/15 08:33:44;;;;;;;10.48;1.70;;;;;;;;;;5923058;30;20060;-84
2023/11/15 08:36:48;;;;;;;11.77;1.98;;;;;;;;;;5919102;30;20069;-83
2023/11/15 08:39:49;;;;;;;5.28;1.50;;;;;;;;;;5922463;29;20589;-83
2023/11/15 08:42:55;;;;;;;2.60;1.50;;;;;;;;;;5896056;29;20063;-81
2023/11/15 08:45:57;;;;;;;5.88;1.77;;;;;;;;;;5908666;29;20048;-81
2023/11/15 08:49:00;;;;;;;3.63;1.63;;;;;;;;;;5927369;29;20055;-81
2023/11/15 08:52:04;;;;;;;;;;;;;;;;;;5924218;29;20057;-82
2023/11/15 08:55:11;;;;;;;4.68;1.70;;;;;;;;;;5922025;29;19936;-83
2023/11/15 08:58:14;;;;;;;4.60;1.75;;;;;;;;;;5921649;29;20055;-84
2023/11/15 09:01:17;;;;;;;5.10;1.80;;;;;;;;;;5923015;29;20047;-83
2023/11/15 09:04:18;;;;;;;2.80;1.50;;;;;;;;;;5922662;29;20134;-84
2023/11/15 09:07:20;;;;;;;6.00;1.85;;;;;;;;;;5941753;29;20130;-81
2023/11/15 09:10:22;;;;;;;7.18;1.80;;;;;;;;;;5924589;29;20091;-82
2023/11/15 09:13:25;;;;;;;4.38;1.83;;;;;;;;;;5921462;29;20059;-80
2023/11/15 09:16:29;;;;;;;7.88;2.75;;;;;;;;;;5926580;29;20059;-85
2023/11/15 09:19:32;;;;;;;6.82;2.50;;;;;;;;;;5916055;29;20047;-84
2023/11/15 09:22:36;;;;;;;7.45;2.25;;;;;;;;;;5913828;29;20071;-82
2023/11/15 09:25:39;;;;;;;8.55;2.20;;;;;;;;;;5909078;29;20542;-82
2023/11/15 09:28:41;;;;;;;7.95;2.80;;;;;;;;;;5905490;29;20154;-82
2023/11/15 09:31:46;;;;;;;26.52;9.90;;;;;;;;;;5935430;29;20058;-84
2023/11/15 09:34:47;;;;;;;35.17;13.73;;;;;;;;;;5922682;29;20608;-83
2023/11/15 09:37:52;;;;;;;54.75;21.40;;;;;;;;;;5921902;29;20051;-83
2023/11/15 09:40:56;;;;;;;9.57;2.78;;;;;;;;;;5922891;29;20526;-84
2023/11/15 09:44:00;;;;;;;11.38;5.05;;;;;;;;;;5919565;29;20049;-82
2023/11/15 09:47:05;;;;;;;18.90;7.95;;;;;;;;;;5921410;29;20059;-84
2023/11/15 09:50:09;;;;;;;6.75;2.22;;;;;;;;;;5922593;29;20055;-81
2023/11/15 09:53:11;;;;;;;19.40;11.32;;;;;;;;;;5940782;29;20055;-81
2023/11/15 09:56:15;;;;;;;6.68;1.65;;;;;;;;;;5908194;29;20136;-82
2023/11/15 09:59:18;;;;;;;4.55;1.80;;;;;;;;;;5939122;29;20058;-81
2023/11/15 10:02:20;;;;;;;6.15;2.10;;;;;;;;;;5925780;29;20063;-81
2023/11/15 10:05:26;;;;;;;9.15;2.15;;;;;;;;;;5927111;29;20047;-82
2023/11/15 10:08:28;;;;;;;6.95;3.45;;;;;;;;;;5942825;29;20051;-83
2023/11/15 10:11:30;;;;;;;6.32;2.35;;;;;;;;;;5927988;29;20062;-83
2023/11/15 10:14:34;;;;;;;4.05;2.45;;;;;;;;;;5941606;29;20059;-83
2023/11/15 10:17:40;;;;;;;3.13;1.40;;;;;;;;;;5939194;29;20047;-83
2023/11/15 10:20:43;;;;;;;6.15;1.65;;;;;;;;;;5923994;29;20043;-83
2023/11/15 10:23:45;;;;;;;;;;;;;;;;;;5906440;29;20044;-83
2023/11/15 10:26:47;;;;;;;5.90;1.58;;;;;;;;;;5937425;29;19933;-82
2023/11/15 10:29:50;;;;;;;6.32;1.40;;;;;;;;;;5914943;29;20622;-84
2023/11/15 10:33:04;;;;;;;6.50;1.83;;;;;;;;;;5920344;29;20083;-83
2023/11/15 10:36:15;;;;;;;3.40;1.60;;;;;;;;;;5903995;29;20435;-84
2023/11/15 10:39:18;;;;;;;5.38;1.50;;;;;;;;;;5900158;29;20066;-83
2023/11/15 10:42:20;;;;;;;9.38;1.48;;;;;;;;;;5932186;29;20149;-83
2023/11/15 10:45:30;;;;;;;5.22;1.08;;;;;;;;;;5920883;29;20047;-84
2023/11/15 10:48:33;;;;;;;4.63;1.40;;;;;;;;;;5935416;29;20062;-84
2023/11/15 10:51:47;;;;;;;5.90;1.45;;;;;;;;;;5920087;30;20075;-84
2023/11/15 10:54:50;;;;;;;;;;;;;;;;;;5936846;29;20525;-84
2023/11/15 10:57:57;;;;;;;3.75;1.60;;;;;;;;;;5936201;29;20012;-84
2023/11/15 11:01:01;;;;;;;5.85;1.58;;;;;;;;;;5935346;29;20108;-83
2023/11/15 11:04:05;;;;;;;9.88;1.40;;;;;;;;;;5921429;30;20062;-83
2023/11/15 11:07:14;;;;;;;6.20;1.50;;;;;;;;;;5934311;29;20047;-84
2023/11/15 11:10:42;;;;;;;3.13;1.30;;;;;;;;;;5929445;29;20051;-84
2023/11/15 11:13:45;;;;;;;2.05;1.10;;;;;;;;;;5935262;29;20118;-84
2023/11/15 11:16:47;;;;;;;5.13;1.40;;;;;;;;;;5939042;29;20142;-84
2023/11/15 11:19:50;;;;;;;16.80;2.28;;;;;;;;;;5932812;29;20538;-84
2023/11/15 11:23:10;;;;;;;4.72;0.98;;;;;;;;;;5920326;30;20062;-84
2023/11/15 11:26:33;;;;;;;2.70;1.00;;;;;;;;;;5937315;29;20047;-83
2023/11/15 11:30:11;;;;;;;11.23;1.85;;;;;;;;;;5919032;29;20063;-83
2023/11/15 11:33:19;;;;;;;4.40;1.00;;;;;;;;;;5910884;29;21087;-84
2023/11/15 11:36:49;;;;;;;4.72;1.30;;;;;;;;;;5920654;30;20200;-84
2023/11/15 11:39:52;;;;;;;3.95;1.10;;;;;;;;;;5933940;29;20063;-84
2023/11/15 11:43:18;;;;;;;4.82;1.02;;;;;;;;;;5936394;29;20774;-83
2023/11/15 11:46:20;;;;;;;5.10;1.50;;;;;;;;;;5920199;29;20133;-85
2023/11/15 11:49:22;;;;;;;7.78;1.08;;;;;;;;;;5902734;29;20101;-85
2023/11/15 11:52:25;;;;;;;3.30;0.90;;;;;;;;;;5919354;29;20056;-85
2023/11/15 11:55:31;;;;;;;3.95;0.90;;;;;;;;;;5920877;30;20054;-85
2023/11/15 11:58:34;;;;;;;4.97;1.38;;;;;;;;;;5901582;30;20062;-84
2023/11/15 12:01:46;;;;;;;2.88;1.00;;;;;;;;;;5919751;29;20062;-85
2023/11/15 12:04:48;;;;;;;3.45;1.02;;;;;;;;;;5924168;30;20079;-85
2023/11/15 12:07:53;;;;;;;4.93;1.27;;;;;;;;;;5911202;30;20055;-84
2023/11/15 12:10:58;;;;;;;2.50;0.85;;;;;;;;;;5917310;29;20054;-85
2023/11/15 12:14:00;;;;;;;2.85;0.88;;;;;;;;;;5909654;29;20055;-83
2023/11/15 12:17:02;;;;;;;5.35;1.00;;;;;;;;;;5921625;29;20051;-85
2023/11/15 12:20:04;;;;;;;6.43;1.20;;;;;;;;;;5906170;29;20051;-85
2023/11/15 12:23:08;;;;;;;3.65;1.00;;;;;;;;;;5933814;29;20054;-84
2023/11/15 12:26:10;;;;;;;3.75;0.90;;;;;;;;;;5900759;29;20058;-85
2023/11/15 12:29:23;;;;;;;4.53;1.15;;;;;;;;;;5936958;29;20101;-84
2023/11/15 12:32:25;;;;;;;1.45;0.88;;;;;;;;;;5920101;29;20047;-82
2023/11/15 12:35:31;;;;;;;2.95;1.13;;;;;;;;;;5935725;29;20051;-84
2023/11/15 12:38:33;;;;;;;3.10;1.00;;;;;;;;;;5916596;29;20047;-85
2023/11/15 12:41:48;;;;;;;1.63;0.75;;;;;;;;;;5936580;29;20138;-84
2023/11/15 12:44:50;;;;;;;3.88;0.75;;;;;;;;;;5905249;29;20428;-85
2023/11/15 12:47:52;;;;;;;1.88;0.80;;;;;;;;;;5911387;29;20056;-85
2023/11/15 12:51:01;;;;;;;5.88;0.98;;;;;;;;;;5922444;29;20108;-83
2023/11/15 12:54:03;;;;;;;2.35;1.00;;;;;;;;;;5903641;29;20066;-85
2023/11/15 12:57:14;;;;;;;2.75;0.82;;;;;;;;;;5911668;29;20048;-86
2023/11/15 13:00:28;;;;;;;3.15;0.80;;;;;;;;;;5912715;29;20503;-84
2023/11/15 13:03:34;;;;;;;2.90;1.13;;;;;;;;;;5931285;29;20388;-83
2023/11/15 13:06:37;;;;;;;2.92;0.90;;;;;;;;;;5935632;29;20066;-85
2023/11/15 13:09:38;;;;;;;4.87;1.03;;;;;;;;;;5911488;29;20051;-84
2023/11/15 13:12:40;;;;;;;4.22;0.70;;;;;;;;;;5930130;29;20087;-85
2023/11/15 13:15:42;;;;;;;1.50;0.70;;;;;;;;;;5941855;29;20054;-83
2023/11/15 13:18:49;;;;;;;2.17;0.82;;;;;;;;;;5925817;29;20055;-84
2023/11/15 13:21:51;;;;;;;4.18;0.90;;;;;;;;;;5921537;29;20086;-84
2023/11/15 13:24:53;;;;;;;2.97;1.25;;;;;;;;;;5939422;29;20088;-83
2023/11/15 13:27:56;;;;;;;4.93;1.13;;;;;;;;;;5919414;29;20455;-84
2023/11/15 13:30:58;;;;;;;4.97;1.00;;;;;;;;;;5937364;29;20051;-84
2023/11/15 13:34:00;;;;;;;2.00;0.73;;;;;;;;;;5936855;29;20177;-83
2023/11/15 13:37:03;;;;;;;2.53;0.80;;;;;;;;;;5921402;29;20115;-83
2023/11/15 13:40:09;;;;;;;1.75;1.05;;;;;;;;;;5924204;29;20081;-81
2023/11/15 13:43:10;;;;;;;3.30;0.85;;;;;;;;;;5942199;29;20059;-81
2023/11/15 13:46:12;;;;;;;4.15;0.90;;;;;;;;;;5924384;29;20075;-81
2023/11/15 13:49:14;;;;;;;3.95;0.80;;;;;;;;;;5918244;29;20526;-80
2023/11/15 13:52:16;;;;;;;4.47;1.27;;;;;;;;;;5916941;29;20422;-80
2023/11/15 13:55:18;;;;;;;7.63;1.00;;;;;;;;;;5934252;29;20512;-80
2023/11/15 13:58:20;;;;;;;3.58;1.30;;;;;;;;;;5934857;29;20150;-80
2023/11/15 14:01:22;;;;;;;7.65;2.20;;;;;;;;;;5901710;29;20050;-82
2023/11/15 14:04:23;;;;;;;3.95;1.02;;;;;;;;;;5915044;29;20047;-80
2023/11/15 14:07:25;;;;;;;4.40;1.00;;;;;;;;;;5906456;29;20524;-79
2023/11/15 14:10:29;;;;;;;4.13;1.25;;;;;;;;;;5912877;29;20135;-80
2023/11/15 14:13:31;;;;;;;3.42;0.95;;;;;;;;;;5937062;29;20221;-80
2023/11/15 14:16:33;;;;;;;3.30;1.10;;;;;;;;;;5939310;29;20451;-81
2023/11/15 14:19:35;;;;;;;2.70;0.70;;;;;;;;;;5940475;29;20055;-80
2023/11/15 14:22:37;;;;;;;4.22;1.70;;;;;;;;;;5896924;29;20058;-82
2023/11/15 14:25:41;;;;;;;3.10;1.15;;;;;;;;;;5937524;29;20055;-81
2023/11/15 14:28:43;;;;;;;2.60;0.80;;;;;;;;;;5921928;29;20531;-79
2023/11/15 14:31:45;;;;;;;2.38;0.90;;;;;;;;;;5936433;29;20051;-79
2023/11/15 14:34:47;;;;;;;2.95;1.15;;;;;;;;;;5941541;29;20250;-81
2023/11/15 14:37:53;;;;;;;4.68;1.00;;;;;;;;;;5930801;29;20101;-82
2023/11/15 14:40:55;;;;;;;3.33;1.77;;;;;;;;;;5909822;29;20063;-82
2023/11/15 14:43:57;;;;;;;3.60;1.02;;;;;;;;;;5921207;29;20430;-79
2023/11/15 14:46:58;;;;;;;71.35;19.90;;;;;;;;;;5933952;29;20131;-80
2023/11/15 14:50:01;;;;;;;3.30;1.10;;;;;;;;;;5908007;30;20062;-80
2023/11/15 14:53:18;;;;;;;2.53;0.67;;;;;;;;;;5906836;29;20055;-80
2023/11/15 14:56:22;;;;;;;4.30;1.02;;;;;;;;;;5933603;29;20051;-79
2023/11/15 14:59:24;;;;;;;4.70;1.33;;;;;;;;;;5921496;29;20063;-79
2023/11/15 15:02:25;;;;;;;27.63;7.93;;;;;;;;;;5923892;29;20074;-79
2023/11/15 15:05:27;;;;;;;4.80;1.75;;;;;;;;;;5945873;29;20055;-81
2023/11/15 15:08:29;;;;;;;4.78;1.80;;;;;;;;;;5941550;29;20085;-80
2023/11/15 15:11:32;;;;;;;11.15;3.40;;;;;;;;;;5935581;29;20052;-82
2023/11/15 15:14:34;;;;;;;93.78;26.77;;;;;;;;;;5941019;29;20063;-82
2023/11/15 15:17:37;;;;;;;4.65;1.90;;;;;;;;;;5938490;29;20091;-79
2023/11/15 15:20:39;;;;;;;4.30;1.63;;;;;;;;;;5922792;29;20313;-82
2023/11/15 15:23:41;;;;;;;3.42;1.20;;;;;;;;;;5921110;29;20051;-80
2023/11/15 15:26:43;;;;;;;18.23;6.28;;;;;;;;;;5932890;29;20055;-79
2023/11/15 15:29:48;;;;;;;3.03;1.15;;;;;;;;;;5931519;29;20047;-79
2023/11/15 15:32:50;;;;;;;3.95;0.90;;;;;;;;;;5902390;30;20059;-80
2023/11/15 15:35:52;;;;;;;3.40;1.23;;;;;;;;;;5918733;30;20097;-80
2023/11/15 15:38:54;;;;;;;3.83;1.35;;;;;;;;;;5918243;30;20108;-81
2023/11/15 15:41:56;;;;;;;4.30;1.05;;;;;;;;;;5914881;29;20479;-81
2023/11/15 15:44:58;;;;;;;2.97;1.70;;;;;;;;;;5931165;29;20214;-82
2023/11/15 15:48:00;;;;;;;2.70;1.57;;;;;;;;;;5927776;29;20057;-80
2023/11/15 15:51:02;;;;;;;3.35;1.38;;;;;;;;;;5913993;30;20051;-80
2023/11/15 15:54:04;;;;;;;5.35;1.75;;;;;;;;;;5918796;30;20055;-83
2023/11/15 15:57:06;;;;;;;3.55;1.48;;;;;;;;;;5935673;29;20047;-82
2023/11/15 16:00:08;;;;;;;4.65;1.10;;;;;;;;;;5904913;29;20118;-80
2023/11/15 16:03:10;;;;;;;2.55;0.90;;;;;;;;;;5933130;29;20047;-83
2023/11/15 16:06:12;;;;;;;2.70;1.00;;;;;;;;;;5934591;29;20063;-82
2023/11/15 16:09:13;;;;;;;3.78;1.40;;;;;;;;;;5934438;29;20066;-82
2023/11/15 16:12:15;;;;;;;4.57;2.72;;;;;;;;;;5897603;29;20066;-82
2023/11/15 16:15:18;;;;;;;2.65;1.30;;;;;;;;;;5927814;29;20142;-82
2023/11/15 16:18:22;;;;;;;4.05;2.30;;;;;;;;;;5900985;29;20055;-82
2023/11/15 16:21:25;;;;;;;4.57;1.48;;;;;;;;;;5913952;29;20054;-83
2023/11/15 16:24:26;;;;;;;4.68;1.80;;;;;;;;;;5927431;29;20047;-83
2023/11/15 16:27:28;;;;;;;1.58;1.20;;;;;;;;;;5917317;30;20055;-81
2023/11/15 16:30:38;;;;;;;4.57;1.60;;;;;;;;;;5930738;29;20051;-83
2023/11/15 16:33:39;;;;;;;2.75;1.42;;;;;;;;;;5918667;30;20047;-81
2023/11/15 16:36:43;;;;;;;4.90;1.13;;;;;;;;;;5918590;29;20486;-83
2023/11/15 16:39:46;;;;;;;4.93;1.17;;;;;;;;;;5912483;29;20055;-81
2023/11/15 16:42:48;;;;;;;5.10;1.15;;;;;;;;;;5917301;29;20066;-82
2023/11/15 16:45:50;;;;;;;4.43;1.20;;;;;;;;;;5918523;29;21655;-81
2023/11/15 16:48:52;;;;;;;2.00;1.23;;;;;;;;;;5911699;30;20051;-81
2023/11/15 16:51:55;;;;;;;5.05;2.13;;;;;;;;;;5929552;30;20051;-82
2023/11/15 16:54:57;;;;;;;5.17;2.20;;;;;;;;;;5913395;29;20054;-83
2023/11/15 16:57:58;;;;;;;8.13;1.90;;;;;;;;;;5919751;30;20054;-82
2023/11/15 17:01:07;;;;;;;4.93;1.70;;;;;;;;;;5905324;29;20062;-81
2023/11/15 17:04:09;;;;;;;3.80;2.35;;;;;;;;;;5914605;30;20186;-83
2023/11/15 17:07:11;;;;;;;5.93;2.30;;;;;;;;;;5928902;29;20059;-81
2023/11/15 17:10:13;;;;;;;4.90;2.22;;;;;;;;;;5931793;29;20510;-83
2023/11/15 17:13:16;;;;;;;4.35;2.70;;;;;;;;;;5940818;29;20274;-84
2023/11/15 17:16:18;;;;;;;;;;;;;;;;;;5936673;29;20066;-84
2023/11/15 17:19:20;;;;;;;9.52;4.32;;;;;;;;;;5920153;30;20171;-87
2023/11/15 17:22:22;;;;;;;8.27;2.78;;;;;;;;;;5914789;30;20059;-81
2023/11/15 17:25:24;;;;;;;5.67;2.60;;;;;;;;;;5919706;29;20055;-84
2023/11/15 17:28:26;;;;;;;5.45;1.95;;;;;;;;;;5914450;29;20503;-83
2023/11/15 17:31:28;;;;;;;4.22;1.77;;;;;;;;;;5908245;29;20110;-82
2023/11/15 17:34:30;;;;;;;4.27;2.40;;;;;;;;;;5932043;29;20042;-82
2023/11/15 17:37:33;;;;;;;4.13;2.58;;;;;;;;;;5917830;29;20110;-83
2023/11/15 17:40:34;;;;;;;6.20;2.40;;;;;;;;;;5894208;29;20066;-81
2023/11/15 17:43:37;;;;;;;5.60;1.95;;;;;;;;;;5912737;30;20079;-82
2023/11/15 17:46:41;;;;;;;4.53;2.00;;;;;;;;;;5892125;29;20052;-80
2023/11/15 17:49:43;;;;;;;4.05;1.95;;;;;;;;;;5919241;29;20174;-80
2023/11/15 17:52:45;;;;;;;7.20;2.07;;;;;;;;;;5926192;29;20071;-80
2023/11/15 17:55:48;;;;;;;4.95;2.50;;;;;;;;;;5910512;29;20111;-81
2023/11/15 17:58:51;;;;;;;4.07;2.38;;;;;;;;;;5912654;29;20055;-81
2023/11/15 18:01:54;;;;;;;6.00;2.90;;;;;;;;;;5929082;29;20078;-82
2023/11/15 18:05:00;;;;;;;6.95;2.75;;;;;;;;;;5916445;29;20062;-80
2023/11/15 18:08:03;;;;;;;6.32;2.47;;;;;;;;;;5898606;29;20138;-80
2023/11/15 18:11:05;;;;;;;5.68;2.40;;;;;;;;;;5915347;29;20145;-81
2023/11/15 18:14:07;;;;;;;4.70;2.22;;;;;;;;;;5916000;29;20055;-82
2023/11/15 18:17:13;;;;;;;5.45;3.03;;;;;;;;;;5912996;29;20060;-82